createdAt,value
2022-09-27T00:03:30.936Z,98639.31
2022-09-27T00:08:33.596Z,98641.13
2022-09-27T00:13:35.158Z,98632.50
2022-09-27T00:18:36.583Z,98622.94
2022-09-27T00:23:39.096Z,98624.69
2022-09-27T00:28:40.658Z,98627.97
2022-09-27T00:33:42.060Z,98622.56
2022-09-27T00:38:43.685Z,98621.38
2022-09-27T00:43:50.977Z,98614.16
2022-09-27T00:49:04.769Z,98615.59
2022-09-27T00:54:10.106Z,98613.69
2022-09-27T00:59:20.112Z,98614.31
2022-09-27T01:04:24.556Z,98614.50
2022-09-27T01:09:27.327Z,98614.50
2022-09-27T01:14:51.195Z,98646.91
2022-09-27T01:20:32.728Z,98654.84
2022-09-27T01:25:56.150Z,98654.94
2022-09-27T01:31:09.352Z,98663.66
2022-09-27T01:36:50.418Z,98662.25
2022-09-27T01:42:13.125Z,98668.44
2022-09-27T01:47:19.065Z,98673.84
2022-09-27T01:52:26.043Z,98687.56
2022-09-27T01:57:35.187Z,98689.56
2022-09-27T02:02:55.644Z,98690.59
2022-09-27T02:08:05.589Z,98691.50
2022-09-27T02:13:17.559Z,98695.97
2022-09-27T02:18:27.585Z,98695.31
2022-09-27T02:23:41.967Z,98690.44
2022-09-27T02:28:49.852Z,98696.97
2022-09-27T02:33:56.735Z,98701.22
2022-09-27T02:38:58.731Z,98706.41
2022-09-27T02:44:04.811Z,98709.09
2022-09-27T02:49:33.092Z,98717.56
2022-09-27T02:55:18.127Z,98721.00
2022-09-27T03:00:21.895Z,98728.44
2022-09-27T03:05:35.197Z,98729.25
2022-09-27T03:10:36.601Z,98739.19
2022-09-27T03:15:37.999Z,98733.38
2022-09-27T03:20:39.468Z,98739.28
2022-09-27T03:25:41.423Z,98748.47
2022-09-27T03:30:45.399Z,98737.81
2022-09-27T03:35:46.888Z,98748.91
2022-09-27T03:40:48.313Z,98743.03
2022-09-27T03:45:50.258Z,98758.31
2022-09-27T03:50:51.771Z,98748.00
2022-09-27T03:55:53.843Z,98754.75
2022-09-27T04:00:55.250Z,98766.75
2022-09-27T04:05:56.805Z,98762.69
2022-09-27T04:10:58.439Z,98780.75
2022-09-27T04:15:59.824Z,98771.84
2022-09-27T04:21:02.098Z,98777.56
2022-09-27T04:26:03.702Z,98777.47
2022-09-27T04:31:05.356Z,98785.22
2022-09-27T04:36:25.567Z,98780.75
2022-09-27T04:41:28.448Z,98798.69
2022-09-27T04:46:34.661Z,98806.41
2022-09-27T04:51:36.210Z,98806.13
2022-09-27T04:56:37.651Z,98815.88
2022-09-27T05:01:39.276Z,98818.41
2022-09-27T05:06:40.755Z,98834.44
2022-09-27T05:11:42.204Z,98843.63
2022-09-27T05:16:43.838Z,98855.53
2022-09-27T05:21:45.316Z,98853.31
2022-09-27T05:26:47.483Z,98862.06
2022-09-27T05:31:49.619Z,98864.69
2022-09-27T05:36:51.027Z,98871.84
2022-09-27T05:41:54.795Z,98880.50
2022-09-27T05:46:56.374Z,98894.94
2022-09-27T05:51:57.850Z,98896.09
2022-09-27T05:57:00.428Z,98900.72
2022-09-27T06:02:02.163Z,98906.13
2022-09-27T06:07:03.756Z,98918.94
2022-09-27T06:12:05.179Z,98921.66
2022-09-27T06:17:06.718Z,98922.72
2022-09-27T06:22:08.147Z,98927.81
2022-09-27T06:27:09.964Z,98936.19
2022-09-27T06:32:11.402Z,98938.88
2022-09-27T06:37:12.810Z,98945.19
2022-09-27T06:42:14.172Z,98952.00
2022-09-27T06:47:19.577Z,98964.44
2022-09-27T06:52:21.047Z,98965.25
2022-09-27T06:57:41.199Z,98964.50
2022-09-27T07:02:42.603Z,98975.50
2022-09-27T07:07:44.146Z,98978.03
2022-09-27T07:12:48.838Z,98988.38
2022-09-27T07:17:58.362Z,98996.50
2022-09-27T07:22:59.778Z,99004.97
2022-09-27T07:28:02.624Z,99003.31
2022-09-27T07:33:06.372Z,99008.66
2022-09-27T07:38:10.079Z,99004.09
2022-09-27T07:43:12.326Z,99005.13
2022-09-27T07:48:16.117Z,99014.22
2022-09-27T07:53:17.687Z,99017.59
2022-09-27T07:58:20.078Z,99031.75
2022-09-27T08:03:21.634Z,99022.16
2022-09-27T08:08:24.239Z,99041.50
2022-09-27T08:13:25.759Z,99040.13
2022-09-27T08:18:27.201Z,99033.94
2022-09-27T08:23:29.221Z,99040.91
2022-09-27T08:28:31.931Z,99037.94
2022-09-27T08:33:36.785Z,99040.69
2022-09-27T08:38:42.028Z,99033.38
2022-09-27T08:43:57.663Z,99037.66
2022-09-27T08:49:07.050Z,99036.56
2022-09-27T08:54:20.176Z,99028.66
2022-09-27T08:59:27.311Z,99026.09
2022-09-27T09:04:36.767Z,99031.03
2022-09-27T09:09:45.062Z,99025.38
2022-09-27T09:15:11.159Z,99023.00
2022-09-27T09:20:26.975Z,99017.63
2022-09-27T09:25:51.786Z,99017.34
2022-09-27T09:31:31.379Z,99013.38
2022-09-27T09:36:39.556Z,99010.97
2022-09-27T09:41:49.405Z,99008.16
2022-09-27T09:46:58.015Z,99015.94
2022-09-27T09:52:09.003Z,99008.25
2022-09-27T09:57:10.625Z,99001.22
2022-09-27T10:02:20.130Z,99000.28
2022-09-27T10:07:24.202Z,98990.84
2022-09-27T10:12:26.359Z,98993.00
2022-09-27T10:17:35.746Z,98991.28
2022-09-27T10:22:45.268Z,98992.31
2022-09-27T10:27:50.360Z,98987.81
2022-09-27T10:32:57.062Z,98976.75
2022-09-27T10:38:22.836Z,99017.28
2022-09-27T10:43:29.781Z,99054.81
2022-09-27T10:48:31.849Z,99042.91
2022-09-27T10:53:36.551Z,99019.97
2022-09-27T10:58:38.767Z,99018.94
2022-09-27T11:03:49.842Z,99003.00
2022-09-27T11:08:53.241Z,99020.66
2022-09-27T11:14:08.024Z,99032.03
2022-09-27T11:19:31.176Z,99020.28
2022-09-27T11:24:43.327Z,99027.38
2022-09-27T11:30:09.003Z,99021.63
2022-09-27T11:35:42.028Z,99020.94
2022-09-27T11:40:52.509Z,99021.72
2022-09-27T11:46:28.165Z,99014.28
2022-09-27T11:51:40.391Z,98995.09
2022-09-27T11:57:05.556Z,98988.88
2022-09-27T12:02:35.141Z,98981.91
2022-09-27T12:07:53.087Z,98978.72
2022-09-27T12:12:58.284Z,98975.00
2022-09-27T12:18:27.328Z,98977.78
2022-09-27T12:23:40.287Z,98961.31
2022-09-27T12:29:00.704Z,98962.47
2022-09-27T12:34:04.809Z,98953.47
2022-09-27T12:39:36.856Z,98954.44
2022-09-27T12:44:41.154Z,98941.25
2022-09-27T12:50:04.328Z,98950.56
2022-09-27T12:55:45.312Z,98957.31
2022-09-27T13:00:56.341Z,98961.81
2022-09-27T13:06:34.396Z,98956.50
2022-09-27T13:11:50.843Z,98937.78
2022-09-27T13:16:52.620Z,98945.09
2022-09-27T13:21:56.789Z,98938.84
2022-09-27T13:27:01.547Z,98942.94
2022-09-27T13:32:14.868Z,98954.06
2022-09-27T13:37:37.646Z,98937.63
2022-09-27T13:42:49.910Z,98931.41
2022-09-27T13:47:53.456Z,98927.28
2022-09-27T13:53:06.924Z,98944.53
2022-09-27T13:58:34.142Z,98949.44
2022-09-27T14:03:42.343Z,98947.28
2022-09-27T14:08:50.915Z,98955.34
2022-09-27T14:13:53.704Z,98953.28
2022-09-27T14:18:58.325Z,98920.66
2022-09-27T14:24:27.820Z,98945.75
2022-09-27T14:29:33.472Z,98931.06
2022-09-27T14:34:35.180Z,98929.19
2022-09-27T14:39:37.861Z,98928.88
2022-09-27T14:44:44.374Z,98935.28
2022-09-27T14:49:50.824Z,98922.00
2022-09-27T14:55:00.942Z,98927.09
2022-09-27T15:00:21.751Z,98931.09
2022-09-27T15:05:24.621Z,98920.72
2022-09-27T15:10:31.348Z,98922.34
2022-09-27T15:15:39.816Z,98927.88
2022-09-27T15:20:53.697Z,98926.16
2022-09-27T15:26:10.071Z,98928.63
2022-09-27T15:31:13.602Z,98926.72
2022-09-27T15:36:15.823Z,98936.19
2022-09-27T15:41:23.216Z,98952.84
2022-09-27T15:46:29.233Z,98952.84
2022-09-27T15:52:02.458Z,98961.09
2022-09-27T15:57:05.849Z,98954.81
2022-09-27T16:02:16.130Z,98952.09
2022-09-27T16:07:17.734Z,98953.38
2022-09-27T16:12:19.157Z,98962.03
2022-09-27T16:17:20.567Z,98970.88
2022-09-27T16:22:22.102Z,98974.59
2022-09-27T16:27:25.249Z,98984.06
2022-09-27T16:32:27.168Z,99004.09
2022-09-27T16:37:30.275Z,99004.06
2022-09-27T16:42:31.914Z,99007.56
2022-09-27T16:47:34.079Z,99012.38
2022-09-27T16:52:35.473Z,99008.72
2022-09-27T16:57:38.225Z,99015.59
2022-09-27T17:02:40.269Z,99013.81
2022-09-27T17:07:41.877Z,99010.66
2022-09-27T17:12:43.314Z,99020.88
2022-09-27T17:17:49.156Z,99026.97
2022-09-27T17:22:50.683Z,99032.75
2022-09-27T17:27:52.143Z,99034.31
2022-09-27T17:32:53.606Z,99040.53
2022-09-27T17:37:55.090Z,99034.25
2022-09-27T17:42:56.503Z,99032.97
2022-09-27T17:48:16.668Z,99021.22
2022-09-27T17:53:18.083Z,99038.00
2022-09-27T17:58:20.761Z,99041.16
2022-09-27T18:03:22.177Z,99040.78
2022-09-27T18:08:24.452Z,99040.47
2022-09-27T18:13:25.877Z,99038.59
2022-09-27T18:18:28.159Z,99037.34
2022-09-27T18:23:31.700Z,99043.31
2022-09-27T18:28:33.202Z,99052.44
2022-09-27T18:33:35.538Z,99056.56
2022-09-27T18:38:37.360Z,99050.66
2022-09-27T18:43:39.794Z,99044.44
2022-09-27T18:48:41.589Z,99042.59
2022-09-27T18:53:43.898Z,99041.06
2022-09-27T18:58:45.433Z,99043.69
2022-09-27T19:03:47.831Z,99039.50
2022-09-27T19:08:58.558Z,99041.59
2022-09-27T19:14:03.303Z,99042.19
2022-09-27T19:19:04.774Z,99037.28
2022-09-27T19:24:06.243Z,99041.00
2022-09-27T19:29:07.803Z,99025.38
2022-09-27T19:34:09.241Z,99021.63
2022-09-27T19:39:10.651Z,99021.28
2022-09-27T19:44:13.207Z,99009.22
2022-09-27T19:49:14.680Z,99012.81
2022-09-27T19:54:16.439Z,99011.56
2022-09-27T19:59:18.126Z,99007.97
2022-09-27T20:04:19.664Z,98995.78
2022-09-27T20:09:21.175Z,98994.31
2022-09-27T20:14:22.592Z,98981.28
2022-09-27T20:19:24.515Z,98978.41
2022-09-27T20:24:26.074Z,98978.72
2022-09-27T20:29:27.543Z,98985.06
2022-09-27T20:34:29.471Z,98974.28
2022-09-27T20:39:30.919Z,98968.66
2022-09-27T20:44:33.281Z,98963.09
2022-09-27T20:49:34.750Z,98967.03
2022-09-27T20:54:36.230Z,98957.34
2022-09-27T20:59:37.719Z,98956.22
2022-09-27T21:04:39.140Z,98950.72
2022-09-27T21:09:40.896Z,98948.84
2022-09-27T21:14:42.354Z,98943.47
2022-09-27T21:19:43.783Z,98929.94
2022-09-27T21:24:45.411Z,98926.47
2022-09-27T21:29:46.900Z,98919.84
2022-09-27T21:34:48.334Z,98919.94
2022-09-27T21:39:49.883Z,98910.72
2022-09-27T21:44:51.309Z,98901.38
2022-09-27T21:49:52.734Z,98895.47
2022-09-27T21:54:54.273Z,98893.00
2022-09-27T21:59:56.594Z,98885.72
2022-09-27T22:04:59.616Z,98859.34
2022-09-27T22:10:01.062Z,98844.16
2022-09-27T22:15:02.551Z,98840.97
2022-09-27T22:20:04.216Z,98818.97
2022-09-27T22:25:05.934Z,98811.16
2022-09-27T22:30:07.874Z,98798.28
2022-09-27T22:35:09.646Z,98793.81
2022-09-27T22:40:11.384Z,98784.31
2022-09-27T22:45:13.194Z,98780.66
2022-09-27T22:50:14.691Z,98778.59
2022-09-27T22:55:16.230Z,98751.34
2022-09-27T23:00:17.653Z,98747.06
2022-09-27T23:05:19.060Z,98738.53
2022-09-27T23:10:23.342Z,98733.97
2022-09-27T23:15:24.821Z,98723.88
2022-09-27T23:20:26.942Z,98711.16
2022-09-27T23:25:28.364Z,98709.50
2022-09-27T23:30:31.773Z,98697.69
2022-09-27T23:35:33.827Z,98683.44
2022-09-27T23:40:36.588Z,98662.03
2022-09-27T23:45:38.374Z,98664.50
2022-09-27T23:50:44.002Z,98648.25
2022-09-27T23:55:45.499Z,98651.44
